createdAt,value
2022-12-26T00:01:07.483Z,56.32
2022-12-26T00:03:33.923Z,59.20
2022-12-26T00:06:00.289Z,58.37
2022-12-26T00:08:26.590Z,58.49
2022-12-26T00:10:52.888Z,57.12
2022-12-26T00:13:38.799Z,56.50
2022-12-26T00:16:05.495Z,56.56
2022-12-26T00:18:31.764Z,56.05
2022-12-26T00:20:58.028Z,57.07
2022-12-26T00:23:24.351Z,54.70
2022-12-26T00:25:50.592Z,54.53
2022-12-26T00:28:16.837Z,56.52
2022-12-26T00:30:43.168Z,57.11
2022-12-26T00:33:09.394Z,57.33
2022-12-26T00:35:35.667Z,56.62
2022-12-26T00:38:01.988Z,56.36
2022-12-26T00:40:28.291Z,56.47
2022-12-26T00:42:54.550Z,55.37
2022-12-26T00:45:20.885Z,55.70
2022-12-26T00:47:47.148Z,56.62
2022-12-26T00:50:15.913Z,57.94
2022-12-26T00:52:42.563Z,57.04
2022-12-26T00:55:08.870Z,55.87
2022-12-26T00:57:35.129Z,55.31
2022-12-26T01:00:01.472Z,56.15
2022-12-26T01:02:27.868Z,56.03
2022-12-26T01:04:54.208Z,56.96
2022-12-26T01:07:20.471Z,55.23
2022-12-26T01:09:46.731Z,55.60
2022-12-26T01:12:12.975Z,55.10
2022-12-26T01:14:39.226Z,55.32
2022-12-26T01:17:05.484Z,56.76
2022-12-26T01:19:31.735Z,55.60
2022-12-26T01:21:57.975Z,56.98
2022-12-26T01:24:24.313Z,57.08
2022-12-26T01:26:50.545Z,56.89
2022-12-26T01:29:16.856Z,57.29
2022-12-26T01:31:43.142Z,56.75
2022-12-26T01:34:09.451Z,56.72
2022-12-26T01:36:35.713Z,56.78
2022-12-26T01:39:01.982Z,56.37
2022-12-26T01:41:28.313Z,55.97
2022-12-26T01:43:54.616Z,55.71
2022-12-26T01:46:20.973Z,55.63
2022-12-26T01:48:47.334Z,55.79
2022-12-26T01:51:13.591Z,55.49
2022-12-26T01:53:39.853Z,54.75
2022-12-26T01:56:06.109Z,54.44
2022-12-26T01:58:32.342Z,54.14
2022-12-26T02:00:58.632Z,54.49
2022-12-26T02:03:24.974Z,54.82
2022-12-26T02:05:51.300Z,54.81
2022-12-26T02:08:17.545Z,55.23
2022-12-26T02:10:43.802Z,55.79
2022-12-26T02:13:10.061Z,55.21
2022-12-26T02:15:36.325Z,54.80
2022-12-26T02:18:02.582Z,54.48
2022-12-26T02:20:28.893Z,55.44
2022-12-26T02:22:55.151Z,55.55
2022-12-26T02:25:21.380Z,55.61
2022-12-26T02:27:47.695Z,55.11
2022-12-26T02:30:14.009Z,56.25
2022-12-26T02:32:41.656Z,56.43
2022-12-26T02:35:07.968Z,55.25
2022-12-26T02:37:34.254Z,55.41
2022-12-26T02:40:00.512Z,54.65
2022-12-26T02:42:26.802Z,54.75
2022-12-26T02:44:53.460Z,55.09
2022-12-26T02:47:19.722Z,55.07
2022-12-26T02:49:46.009Z,54.37
2022-12-26T02:52:12.281Z,55.63
2022-12-26T02:54:38.530Z,56.17
2022-12-26T02:57:04.776Z,57.06
2022-12-26T02:59:56.080Z,57.67
2022-12-26T03:02:17.476Z,57.20
2022-12-26T03:04:43.808Z,55.35
2022-12-26T03:07:10.037Z,56.19
2022-12-26T03:09:36.296Z,57.30
2022-12-26T03:12:02.663Z,58.36
2022-12-26T03:14:28.916Z,58.33
2022-12-26T03:16:55.243Z,57.98
2022-12-26T03:19:21.564Z,58.59
2022-12-26T03:21:47.824Z,58.41
2022-12-26T03:24:14.058Z,56.97
2022-12-26T03:26:40.317Z,57.00
2022-12-26T03:29:06.633Z,56.65
2022-12-26T03:31:32.860Z,56.56
2022-12-26T03:33:59.159Z,57.01
2022-12-26T03:36:25.484Z,57.54
2022-12-26T03:38:51.725Z,57.78
2022-12-26T03:41:17.968Z,57.09
2022-12-26T03:43:44.254Z,57.51
2022-12-26T03:46:10.530Z,56.95
2022-12-26T03:48:36.789Z,57.50
2022-12-26T03:51:03.151Z,57.46
2022-12-26T03:53:29.387Z,56.96
2022-12-26T03:55:55.625Z,58.02
2022-12-26T03:58:21.880Z,56.07
2022-12-26T04:00:48.157Z,56.58
2022-12-26T04:03:14.398Z,57.85
2022-12-26T04:05:40.767Z,58.73
2022-12-26T04:08:07.006Z,58.41
2022-12-26T04:10:33.259Z,57.77
2022-12-26T04:12:59.606Z,57.96
2022-12-26T04:15:25.889Z,59.13
2022-12-26T04:17:52.136Z,58.51
2022-12-26T04:20:18.481Z,58.40
2022-12-26T04:22:44.718Z,58.26
2022-12-26T04:25:10.988Z,58.84
2022-12-26T04:27:37.319Z,58.65
2022-12-26T04:30:03.562Z,57.26
2022-12-26T04:32:29.795Z,57.10
2022-12-26T04:34:56.061Z,57.24
2022-12-26T04:37:22.332Z,56.42
2022-12-26T04:39:48.571Z,57.20
2022-12-26T04:42:14.925Z,57.73
2022-12-26T04:44:41.146Z,57.01
2022-12-26T04:47:07.383Z,56.31
2022-12-26T04:49:33.721Z,55.23
2022-12-26T04:51:59.941Z,55.36
2022-12-26T04:54:26.186Z,56.23
2022-12-26T04:56:52.521Z,56.00
2022-12-26T04:59:18.775Z,56.89
2022-12-26T05:01:45.162Z,57.09
2022-12-26T05:04:11.601Z,56.64
2022-12-26T05:06:37.825Z,56.63
2022-12-26T05:09:04.072Z,57.00
2022-12-26T05:11:30.369Z,55.15
2022-12-26T05:13:56.662Z,57.53
2022-12-26T05:16:22.941Z,56.75
2022-12-26T05:18:49.224Z,55.58
2022-12-26T05:21:15.527Z,57.45
2022-12-26T05:23:41.781Z,56.96
2022-12-26T05:26:08.016Z,56.61
2022-12-26T05:28:34.501Z,56.82
2022-12-26T05:31:00.820Z,55.10
2022-12-26T05:33:27.128Z,56.56
2022-12-26T05:35:53.434Z,56.92
2022-12-26T05:38:19.734Z,56.86
2022-12-26T05:40:46.000Z,56.57
2022-12-26T05:43:12.326Z,57.04
2022-12-26T05:45:38.566Z,56.81
2022-12-26T05:48:04.813Z,56.68
2022-12-26T05:50:31.105Z,56.11
2022-12-26T05:52:57.425Z,56.35
2022-12-26T05:55:23.687Z,56.58
2022-12-26T05:57:50.001Z,56.86
2022-12-26T06:00:16.256Z,56.77
2022-12-26T06:02:42.635Z,56.53
2022-12-26T06:05:08.984Z,55.90
2022-12-26T06:07:35.283Z,55.71
2022-12-26T06:10:01.586Z,56.76
2022-12-26T06:12:27.964Z,56.46
2022-12-26T06:14:54.226Z,56.51
2022-12-26T06:17:20.445Z,56.23
2022-12-26T06:19:47.228Z,55.88
2022-12-26T06:22:13.537Z,55.79
2022-12-26T06:24:39.837Z,55.11
2022-12-26T06:27:06.119Z,55.06
2022-12-26T06:29:32.376Z,56.39
2022-12-26T06:31:58.751Z,56.32
2022-12-26T06:34:25.091Z,56.81
2022-12-26T06:36:51.353Z,56.91
2022-12-26T06:39:17.589Z,57.74
2022-12-26T06:41:43.951Z,57.51
2022-12-26T06:44:16.110Z,58.64
2022-12-26T06:46:44.389Z,58.90
2022-12-26T06:49:10.715Z,57.90
2022-12-26T06:51:36.947Z,58.19
2022-12-26T06:54:03.247Z,57.36
2022-12-26T06:56:29.486Z,58.68
2022-12-26T06:58:55.803Z,57.45
2022-12-26T07:01:22.165Z,56.93
2022-12-26T07:03:51.625Z,56.83
2022-12-26T07:06:18.412Z,56.59
2022-12-26T07:08:44.699Z,57.14
2022-12-26T07:11:10.971Z,57.81
2022-12-26T07:13:37.275Z,56.68
2022-12-26T07:16:03.577Z,57.04
2022-12-26T07:18:29.863Z,56.40
2022-12-26T07:20:56.169Z,56.27
2022-12-26T07:23:22.443Z,55.60
2022-12-26T07:25:48.691Z,54.54
2022-12-26T07:28:14.993Z,55.72
2022-12-26T07:30:41.292Z,56.66
2022-12-26T07:33:07.520Z,55.66
2022-12-26T07:35:33.843Z,56.01
2022-12-26T07:38:00.123Z,56.47
2022-12-26T07:40:26.429Z,55.76
2022-12-26T07:42:52.730Z,54.72
2022-12-26T07:45:19.034Z,56.25
2022-12-26T07:47:45.408Z,55.81
2022-12-26T07:50:11.700Z,55.58
2022-12-26T07:52:37.979Z,55.40
2022-12-26T07:55:04.288Z,56.68
2022-12-26T07:57:48.215Z,55.58
2022-12-26T08:00:15.352Z,54.08
2022-12-26T08:02:41.795Z,54.38
2022-12-26T08:05:08.100Z,54.42
2022-12-26T08:07:34.400Z,54.02
2022-12-26T08:10:00.732Z,54.23
2022-12-26T08:12:27.271Z,54.33
2022-12-26T08:14:53.544Z,55.00
2022-12-26T08:17:19.884Z,54.85
2022-12-26T08:19:46.179Z,52.58
2022-12-26T08:22:12.437Z,52.90
2022-12-26T08:24:38.684Z,52.11
2022-12-26T08:27:04.929Z,52.92
2022-12-26T08:29:31.170Z,55.19
2022-12-26T08:31:57.462Z,55.70
2022-12-26T08:34:23.680Z,54.73
2022-12-26T08:36:50.094Z,53.56
2022-12-26T08:39:16.416Z,54.02
2022-12-26T08:41:42.648Z,53.50
2022-12-26T08:46:55.184Z,52.71
2022-12-26T08:49:21.486Z,52.39
2022-12-26T08:51:47.726Z,51.92
2022-12-26T08:54:14.013Z,52.34
2022-12-26T08:56:40.307Z,51.94
2022-12-26T08:59:07.512Z,51.36
2022-12-26T09:01:33.902Z,52.23
2022-12-26T09:04:00.258Z,53.70
2022-12-26T09:06:27.406Z,53.71
2022-12-26T09:08:53.704Z,54.37
2022-12-26T09:11:20.005Z,53.12
2022-12-26T09:13:46.291Z,53.69
2022-12-26T09:16:12.616Z,53.02
2022-12-26T09:18:38.871Z,52.72
2022-12-26T09:21:05.137Z,52.35
2022-12-26T09:23:31.420Z,51.46
2022-12-26T09:25:57.676Z,51.60
2022-12-26T09:28:23.950Z,51.75
2022-12-26T09:30:50.334Z,50.55
2022-12-26T09:33:16.632Z,49.18
2022-12-26T09:35:42.908Z,48.39
2022-12-26T09:38:09.219Z,51.63
2022-12-26T09:40:35.473Z,49.65
2022-12-26T09:43:01.703Z,48.86
2022-12-26T09:45:27.999Z,48.57
2022-12-26T09:47:54.324Z,48.50
2022-12-26T09:50:20.560Z,48.70
2022-12-26T09:52:46.866Z,48.21
2022-12-26T09:55:13.216Z,47.58
2022-12-26T09:57:39.477Z,47.40
2022-12-26T10:00:05.764Z,48.30
2022-12-26T10:02:32.211Z,48.56
2022-12-26T10:04:58.589Z,47.69
2022-12-26T10:07:24.981Z,48.10
2022-12-26T10:09:51.277Z,47.51
2022-12-26T10:12:17.512Z,49.10
2022-12-26T10:14:43.829Z,49.59
2022-12-26T10:17:10.089Z,50.11
2022-12-26T10:19:36.336Z,48.95
2022-12-26T10:22:02.655Z,48.96
2022-12-26T10:24:28.955Z,49.78
2022-12-26T10:26:55.183Z,49.59
2022-12-26T10:29:21.409Z,49.40
2022-12-26T10:31:47.645Z,49.23
2022-12-26T10:34:13.908Z,49.83
2022-12-26T10:36:40.152Z,49.53
2022-12-26T10:39:06.438Z,47.68
2022-12-26T10:41:32.663Z,49.28
2022-12-26T10:43:58.991Z,48.36
2022-12-26T10:46:25.301Z,47.65
2022-12-26T10:48:51.609Z,50.75
2022-12-26T10:51:17.902Z,49.85
2022-12-26T10:53:44.240Z,48.42
2022-12-26T10:56:14.814Z,48.57
2022-12-26T10:58:42.899Z,50.67
2022-12-26T11:01:09.186Z,49.78
2022-12-26T11:03:35.449Z,50.92
2022-12-26T11:06:09.559Z,49.73
2022-12-26T11:08:40.684Z,49.46
2022-12-26T11:11:09.763Z,48.64
2022-12-26T11:13:36.074Z,47.76
2022-12-26T11:16:02.394Z,47.59
2022-12-26T11:18:28.744Z,47.74
2022-12-26T11:20:55.028Z,50.44
2022-12-26T11:23:21.302Z,47.86
2022-12-26T11:25:47.606Z,48.99
2022-12-26T11:28:13.902Z,49.52
2022-12-26T11:30:40.169Z,48.33
2022-12-26T11:33:13.468Z,49.05
2022-12-26T11:35:40.689Z,50.70
2022-12-26T11:38:06.995Z,49.95
2022-12-26T11:40:33.237Z,50.84
2022-12-26T11:42:59.526Z,50.51
2022-12-26T11:45:25.833Z,51.22
2022-12-26T11:47:52.064Z,52.98
2022-12-26T11:50:18.449Z,53.07
2022-12-26T11:52:44.685Z,54.63
2022-12-26T11:55:10.964Z,55.52
2022-12-26T11:57:38.003Z,55.19
2022-12-26T12:00:04.366Z,53.22
2022-12-26T12:02:30.715Z,53.79
2022-12-26T12:04:57.001Z,53.36
2022-12-26T12:07:23.320Z,52.27
2022-12-26T12:09:49.659Z,52.28
2022-12-26T12:12:15.896Z,52.86
2022-12-26T12:14:42.221Z,52.21
2022-12-26T12:17:08.456Z,51.60
2022-12-26T12:19:34.712Z,54.40
2022-12-26T12:22:00.983Z,50.83
2022-12-26T12:24:27.302Z,51.29
2022-12-26T12:26:58.768Z,51.02
2022-12-26T12:29:28.010Z,50.57
2022-12-26T12:31:54.419Z,51.49
2022-12-26T12:34:20.780Z,51.60
2022-12-26T12:36:47.115Z,50.65
2022-12-26T12:39:13.341Z,50.74
2022-12-26T12:41:39.608Z,50.30
2022-12-26T12:44:05.879Z,50.15
2022-12-26T12:46:32.135Z,49.20
2022-12-26T12:48:58.355Z,47.61
2022-12-26T12:51:24.596Z,47.17
2022-12-26T12:53:50.905Z,49.53
2022-12-26T12:56:17.139Z,49.06
2022-12-26T12:58:43.413Z,48.88
2022-12-26T13:01:09.871Z,48.07
2022-12-26T13:03:36.295Z,47.89
2022-12-26T13:06:02.687Z,48.21
2022-12-26T13:08:28.940Z,47.57
2022-12-26T13:10:55.188Z,47.07
2022-12-26T13:13:21.425Z,46.89
2022-12-26T13:15:47.656Z,47.36
2022-12-26T13:18:13.979Z,47.45
2022-12-26T13:20:40.274Z,49.63
2022-12-26T13:23:06.537Z,48.57
2022-12-26T13:25:32.860Z,48.18
2022-12-26T13:27:59.163Z,48.83
2022-12-26T13:30:25.404Z,49.61
2022-12-26T13:32:51.754Z,49.06
2022-12-26T13:35:18.093Z,48.61
2022-12-26T13:37:44.671Z,49.69
2022-12-26T13:40:10.971Z,50.06
2022-12-26T13:42:37.246Z,50.52
2022-12-26T13:45:03.497Z,50.66
2022-12-26T13:47:29.803Z,48.40
2022-12-26T13:49:56.065Z,47.50
2022-12-26T13:52:22.822Z,47.75
2022-12-26T13:54:49.116Z,49.28
2022-12-26T13:57:15.445Z,49.25
2022-12-26T13:59:41.693Z,50.28
2022-12-26T14:02:08.112Z,50.50
2022-12-26T14:04:34.757Z,49.34
2022-12-26T14:07:01.085Z,48.83
2022-12-26T14:09:27.324Z,48.77
2022-12-26T14:11:53.555Z,49.66
2022-12-26T14:14:20.047Z,50.77
2022-12-26T14:16:46.344Z,50.08
2022-12-26T14:19:12.610Z,49.95
2022-12-26T14:21:38.909Z,50.05
2022-12-26T14:24:05.194Z,50.07
2022-12-26T14:26:31.441Z,49.35
2022-12-26T14:28:57.677Z,49.29
2022-12-26T14:31:23.994Z,49.18
2022-12-26T14:33:50.247Z,50.00
2022-12-26T14:36:16.506Z,50.48
2022-12-26T14:38:42.816Z,51.61
2022-12-26T14:41:09.115Z,51.77
2022-12-26T14:43:35.392Z,51.92
2022-12-26T14:46:01.725Z,51.75
2022-12-26T14:48:28.091Z,51.56
2022-12-26T14:50:54.391Z,52.01
2022-12-26T14:53:20.682Z,52.35
2022-12-26T14:55:47.138Z,55.16
2022-12-26T14:58:13.417Z,55.46
2022-12-26T15:00:39.745Z,55.38
2022-12-26T15:03:06.062Z,55.44
2022-12-26T15:05:32.457Z,56.35
2022-12-26T15:07:58.754Z,53.95
2022-12-26T15:10:26.546Z,53.77
2022-12-26T15:12:58.707Z,54.50
2022-12-26T15:15:25.637Z,55.49
2022-12-26T15:17:51.858Z,57.25
2022-12-26T15:20:18.097Z,57.50
2022-12-26T15:22:44.811Z,57.05
2022-12-26T15:25:19.863Z,57.61
2022-12-26T15:27:46.726Z,58.26
2022-12-26T15:30:12.978Z,57.84
2022-12-26T15:32:39.229Z,59.41
2022-12-26T15:35:05.568Z,58.54
2022-12-26T15:37:31.792Z,59.81
2022-12-26T15:39:58.093Z,61.91
2022-12-26T15:42:24.417Z,66.34
2022-12-26T15:44:50.648Z,68.25
2022-12-26T15:47:16.876Z,69.48
2022-12-26T15:49:43.199Z,71.72
2022-12-26T15:52:09.421Z,74.75
2022-12-26T15:54:35.673Z,73.46
2022-12-26T15:57:01.996Z,73.33
2022-12-26T15:59:28.230Z,73.50
2022-12-26T16:01:54.613Z,74.35
2022-12-26T16:04:20.988Z,71.62
2022-12-26T16:06:47.260Z,72.13
2022-12-26T16:09:13.647Z,74.83
2022-12-26T16:11:40.004Z,73.27
2022-12-26T16:14:06.265Z,74.46
2022-12-26T16:16:32.533Z,76.53
2022-12-26T16:18:58.852Z,76.62
2022-12-26T16:21:25.078Z,77.11
2022-12-26T16:23:51.324Z,75.71
2022-12-26T16:26:17.693Z,75.73
2022-12-26T16:28:43.919Z,75.22
2022-12-26T16:31:10.228Z,73.81
2022-12-26T16:33:38.654Z,74.39
2022-12-26T16:36:04.958Z,76.62
2022-12-26T16:38:31.211Z,79.11
2022-12-26T16:40:57.553Z,79.35
2022-12-26T16:43:23.785Z,80.92
2022-12-26T16:45:50.031Z,79.68
2022-12-26T16:48:16.382Z,79.76
2022-12-26T16:50:42.624Z,77.86
2022-12-26T16:53:08.864Z,78.27
2022-12-26T16:55:35.198Z,79.74
2022-12-26T16:58:01.446Z,78.99
2022-12-26T17:00:27.704Z,78.51
2022-12-26T17:02:54.094Z,81.37
2022-12-26T17:05:20.408Z,81.74
2022-12-26T17:07:46.641Z,82.24
2022-12-26T17:10:14.046Z,80.84
2022-12-26T17:12:40.767Z,81.48
2022-12-26T17:15:07.018Z,82.19
2022-12-26T17:17:33.264Z,82.42
2022-12-26T17:19:59.562Z,80.08
2022-12-26T17:22:25.787Z,80.76
2022-12-26T17:24:52.054Z,86.65
2022-12-26T17:27:18.379Z,86.96
2022-12-26T17:29:44.632Z,81.42
2022-12-26T17:32:10.913Z,83.87
2022-12-26T17:34:37.363Z,84.54
2022-12-26T17:37:19.923Z,90.97
2022-12-26T17:39:46.551Z,90.08
2022-12-26T17:42:12.827Z,87.50
2022-12-26T17:44:39.059Z,92.49
2022-12-26T17:47:05.377Z,90.46
2022-12-26T17:49:31.600Z,91.61
2022-12-26T17:52:01.704Z,88.18
2022-12-26T17:54:28.455Z,88.44
2022-12-26T17:56:55.140Z,86.77
2022-12-26T17:59:21.385Z,90.45
2022-12-26T18:01:47.823Z,89.66
2022-12-26T18:04:14.215Z,91.13
2022-12-26T18:06:40.451Z,100.00
2022-12-26T18:09:06.751Z,100.00
2022-12-26T18:11:33.036Z,100.00
2022-12-26T18:13:59.295Z,100.00
2022-12-26T18:16:25.616Z,100.00
2022-12-26T18:18:51.967Z,100.00
2022-12-26T18:21:18.234Z,100.00
2022-12-26T18:23:44.473Z,98.40
2022-12-26T18:26:10.803Z,96.94
2022-12-26T18:28:37.084Z,98.43
2022-12-26T18:31:03.348Z,100.00
2022-12-26T18:33:29.647Z,100.00
2022-12-26T18:35:55.925Z,100.00
2022-12-26T18:38:22.169Z,100.00
2022-12-26T18:40:48.478Z,100.00
2022-12-26T18:43:14.768Z,100.00
2022-12-26T18:45:41.055Z,100.00
2022-12-26T18:48:07.345Z,100.00
2022-12-26T18:50:33.594Z,100.00
2022-12-26T18:52:59.844Z,100.00
2022-12-26T18:55:26.149Z,100.00
2022-12-26T18:57:52.397Z,100.00
2022-12-26T19:00:18.631Z,100.00
2022-12-26T19:02:44.980Z,100.00
2022-12-26T19:05:11.269Z,100.00
2022-12-26T19:07:37.506Z,100.00
2022-12-26T19:10:03.814Z,100.00
2022-12-26T19:12:30.059Z,100.00
2022-12-26T19:14:56.304Z,100.00
2022-12-26T19:17:22.627Z,100.00
2022-12-26T19:19:48.916Z,100.00
2022-12-26T19:22:15.205Z,100.00
2022-12-26T19:24:41.503Z,100.00
2022-12-26T19:27:07.753Z,100.00
2022-12-26T19:29:33.995Z,100.00
2022-12-26T19:32:00.397Z,100.00
2022-12-26T19:34:26.775Z,100.00
2022-12-26T19:36:53.440Z,100.00
2022-12-26T19:39:19.755Z,100.00
2022-12-26T19:41:46.087Z,100.00
2022-12-26T19:44:12.363Z,100.00
2022-12-26T19:46:38.679Z,100.00
2022-12-26T19:49:04.969Z,100.00
2022-12-26T19:51:31.231Z,100.00
2022-12-26T19:53:57.537Z,100.00
2022-12-26T19:56:23.827Z,100.00
2022-12-26T19:58:55.911Z,100.00
2022-12-26T20:01:22.657Z,100.00
2022-12-26T20:03:49.017Z,100.00
2022-12-26T20:06:15.287Z,100.00
2022-12-26T20:08:41.616Z,100.00
2022-12-26T20:11:08.327Z,100.00
2022-12-26T20:13:34.603Z,100.00
2022-12-26T20:16:00.896Z,100.00
2022-12-26T20:18:28.004Z,100.00
2022-12-26T20:20:54.281Z,100.00
2022-12-26T20:23:20.615Z,100.00
2022-12-26T20:25:46.886Z,100.00
2022-12-26T20:28:13.140Z,100.00
2022-12-26T20:30:39.574Z,100.00
2022-12-26T20:33:05.954Z,100.00
2022-12-26T20:35:32.196Z,98.52
2022-12-26T20:37:58.504Z,100.00
2022-12-26T20:40:25.515Z,100.00
2022-12-26T20:42:51.854Z,100.00
2022-12-26T20:45:18.135Z,100.00
2022-12-26T20:47:44.377Z,100.00
2022-12-26T20:50:10.661Z,100.00
2022-12-26T20:52:36.915Z,100.00
2022-12-26T20:55:03.232Z,99.92
2022-12-26T20:57:29.532Z,100.00
2022-12-26T20:59:55.839Z,100.00
2022-12-26T21:02:22.320Z,100.00
2022-12-26T21:04:48.719Z,100.00
2022-12-26T21:07:14.973Z,100.00
2022-12-26T21:09:46.231Z,100.00
2022-12-26T21:12:13.085Z,100.00
2022-12-26T21:14:39.349Z,100.00
2022-12-26T21:17:05.754Z,100.00
2022-12-26T21:19:32.072Z,98.89
2022-12-26T21:21:58.301Z,99.61
2022-12-26T21:24:24.624Z,97.55
2022-12-26T21:26:50.906Z,100.00
2022-12-26T21:29:17.147Z,100.00
2022-12-26T21:31:43.396Z,100.00
2022-12-26T21:34:09.647Z,100.00
2022-12-26T21:36:35.912Z,100.00
2022-12-26T21:39:02.177Z,99.60
2022-12-26T21:41:28.454Z,100.00
2022-12-26T21:43:54.694Z,98.86
2022-12-26T21:46:21.052Z,99.27
2022-12-26T21:48:47.534Z,97.90
2022-12-26T21:51:13.915Z,98.24
2022-12-26T21:53:40.219Z,98.09
2022-12-26T21:56:06.532Z,98.87
2022-12-26T21:58:32.785Z,99.25
2022-12-26T22:00:59.111Z,96.96
2022-12-26T22:03:25.476Z,100.00
2022-12-26T22:05:51.731Z,98.08
2022-12-26T22:08:18.015Z,98.17
2022-12-26T22:10:44.264Z,98.75
2022-12-26T22:13:10.515Z,100.00
2022-12-26T22:15:36.899Z,99.45
2022-12-26T22:18:03.235Z,100.00
2022-12-26T22:20:29.505Z,100.00
2022-12-26T22:22:56.784Z,100.00
2022-12-26T22:25:23.061Z,100.00
2022-12-26T22:27:49.293Z,100.00
2022-12-26T22:30:15.628Z,100.00
2022-12-26T22:32:41.880Z,100.00
2022-12-26T22:35:11.874Z,100.00
2022-12-26T22:37:41.209Z,100.00
2022-12-26T22:40:07.550Z,100.00
2022-12-26T22:42:33.863Z,100.00
2022-12-26T22:45:00.190Z,98.00
2022-12-26T22:47:26.440Z,100.00
2022-12-26T22:49:52.712Z,99.83
2022-12-26T22:52:18.968Z,98.24
2022-12-26T22:54:45.270Z,98.07
2022-12-26T22:57:11.556Z,98.59
2022-12-26T23:00:06.972Z,99.15
2022-12-26T23:02:24.290Z,98.39
2022-12-26T23:04:50.683Z,98.80
2022-12-26T23:07:16.948Z,97.58
2022-12-26T23:09:43.326Z,97.32
2022-12-26T23:12:09.585Z,96.91
2022-12-26T23:14:35.839Z,97.42
2022-12-26T23:17:02.193Z,95.57
2022-12-26T23:19:28.408Z,94.39
2022-12-26T23:21:54.662Z,93.31
2022-12-26T23:24:21.019Z,94.96
2022-12-26T23:26:47.250Z,92.22
2022-12-26T23:29:13.497Z,91.25
2022-12-26T23:31:39.853Z,91.87
2022-12-26T23:34:06.107Z,92.77
2022-12-26T23:36:32.342Z,92.47
2022-12-26T23:38:58.647Z,93.34
2022-12-26T23:41:24.871Z,94.18
2022-12-26T23:43:51.111Z,93.12
2022-12-26T23:46:17.465Z,92.02
2022-12-26T23:48:43.724Z,92.27
2022-12-26T23:51:10.012Z,94.36
2022-12-26T23:53:36.382Z,96.78
2022-12-26T23:56:03.564Z,93.94
2022-12-26T23:58:29.827Z,92.81
